Time;durP1;ratioP1;P1;durP2;ratioP2;P2;SDS_P1;SDS_P2;PMS_P1;PMS_P2;Temp;Humidity;BMP_temperature;BMP_pressure;BME280_temperature;BME280_humidity;BME280_pressure;Samples;Min_cycle;Max_cycle;Signal;HPM_P1;HPM_P2
2024/03/09 00:00:00;;;;;;;;;;;5.50;72.70;;;;;;5073789;28;19928;-61
2024/03/09 00:02:33;;;;;;;;;;;5.50;72.70;;;;;;5064853;28;19955;-59
2024/03/09 00:05:08;;;;;;;;;;;5.40;72.90;;;;;;5068637;28;19971;-60
2024/03/09 00:07:42;;;;;;;;;;;5.40;72.90;;;;;;5074706;28;19924;-60
2024/03/09 00:10:16;;;;;;;;;;;5.50;72.90;;;;;;5075345;28;19932;-59
2024/03/09 00:12:49;;;;;;;;;;;5.40;73.00;;;;;;5065194;28;19932;-60
2024/03/09 00:15:16;;;;;;;;;;;5.40;73.10;;;;;;5072329;28;19936;-59
2024/03/09 00:17:51;;;;;;;;;;;5.40;73.00;;;;;;5069746;28;19938;-60
2024/03/09 00:20:27;;;;;;;;;;;5.30;73.30;;;;;;5075301;28;19931;-60
2024/03/09 00:23:01;;;;;;;;;;;5.20;73.40;;;;;;5069984;28;20309;-60
2024/03/09 00:25:28;;;;;;;;;;;5.20;73.50;;;;;;5073968;28;19935;-59
2024/03/09 00:28:02;;;;;;;;;;;5.20;73.70;;;;;;5070951;28;20007;-62
2024/03/09 00:30:35;;;;;;;;;;;5.10;73.70;;;;;;5070666;28;20020;-61
2024/03/09 00:33:08;;;;;;;;;;;5.00;73.90;;;;;;5071814;28;19924;-61
2024/03/09 00:35:42;;;;;;;;;;;5.10;74.00;;;;;;5065787;28;19925;-59
2024/03/09 00:38:17;;;;;;;;;;;5.00;74.00;;;;;;5072547;28;19979;-60
2024/03/09 00:40:51;;;;;;;;;;;5.00;73.90;;;;;;5071577;28;19959;-59
2024/03/09 00:43:17;;;;;;;;;;;4.90;74.00;;;;;;5067483;28;20804;-60
2024/03/09 00:45:51;;;;;;;;;;;4.90;74.20;;;;;;5069981;28;19924;-61
2024/03/09 00:48:24;;;;;;;;;;;4.90;74.30;;;;;;5066438;28;19959;-60
2024/03/09 00:50:58;;;;;;;;;;;5.00;74.10;;;;;;5070795;28;20018;-59
2024/03/09 00:53:32;;;;;;;;;;;5.00;74.20;;;;;;5072959;28;19973;-59
2024/03/09 00:56:05;;;;;;;;;;;5.00;74.20;;;;;;5068750;28;19928;-59
2024/03/09 00:58:39;;;;;;;;;;;4.90;74.20;;;;;;5074961;28;19935;-59
2024/03/09 01:01:12;;;;;;;;;;;4.90;74.30;;;;;;5071227;28;19990;-60
2024/03/09 01:03:45;;;;;;;;;;;4.80;74.50;;;;;;5073160;28;20042;-60
2024/03/09 01:06:21;;;;;;;;;;;4.70;74.60;;;;;;5070728;28;19939;-59
2024/03/09 01:08:54;;;;;;;;;;;4.80;74.70;;;;;;5069669;28;19933;-65
2024/03/09 01:11:27;;;;;;;;;;;4.80;74.50;;;;;;5071195;28;19970;-66
2024/03/09 01:14:00;;;;;;;;;;;4.80;74.50;;;;;;5069493;28;19990;-66
2024/03/09 01:16:34;;;;;;;;;;;4.70;74.70;;;;;;5074131;28;19931;-67
2024/03/09 01:19:07;;;;;;;;;;;4.70;74.90;;;;;;5073530;28;20439;-67
2024/03/09 01:21:42;;;;;;;;;;;4.70;74.80;;;;;;5068023;28;20387;-66
2024/03/09 01:24:16;;;;;;;;;;;4.70;74.70;;;;;;5074254;28;19939;-66
2024/03/09 01:26:49;;;;;;;;;;;4.70;74.90;;;;;;5070780;28;21595;-65
2024/03/09 01:29:23;;;;;;;;;;;4.70;74.80;;;;;;5057656;28;19935;-67
2024/03/09 01:31:58;;;;;;;;;;;4.70;74.60;;;;;;5068202;28;19935;-64
2024/03/09 01:34:31;;;;;;;;;;;4.70;74.70;;;;;;5069603;28;19950;-66
2024/03/09 01:37:06;;;;;;;;;;;4.70;74.70;;;;;;5062505;28;19928;-68
2024/03/09 01:39:39;;;;;;;;;;;4.70;74.80;;;;;;5073800;28;20299;-68
2024/03/09 01:42:13;;;;;;;;;;;4.70;74.80;;;;;;5068620;28;20035;-66
2024/03/09 01:44:52;;;;;;;;;;;4.60;74.80;;;;;;5072586;28;20286;-66
2024/03/09 01:47:29;;;;;;;;;;;4.60;74.90;;;;;;5067224;28;19928;-65
2024/03/09 01:50:02;;;;;;;;;;;4.60;75.00;;;;;;5066743;28;20455;-65
2024/03/09 01:52:38;;;;;;;;;;;4.60;75.00;;;;;;5073764;28;19928;-67
2024/03/09 01:55:12;;;;;;;;;;;4.60;75.10;;;;;;5072553;28;20003;-66
2024/03/09 01:57:50;;;;;;;;;;;4.50;75.10;;;;;;5076309;28;19929;-66
2024/03/09 02:00:24;;;;;;;;;;;4.50;75.20;;;;;;5074733;28;20023;-66
2024/03/09 02:02:57;;;;;;;;;;;4.50;75.10;;;;;;5075283;28;19929;-64
2024/03/09 02:05:31;;;;;;;;;;;4.40;75.20;;;;;;5077312;28;20259;-67
2024/03/09 02:08:06;;;;;;;;;;;4.30;75.50;;;;;;5075950;28;19931;-67
2024/03/09 02:10:40;;;;;;;;;;;4.30;75.50;;;;;;5077860;28;20371;-65
2024/03/09 02:13:13;;;;;;;;;;;4.30;75.40;;;;;;5076639;28;21204;-65
2024/03/09 02:15:47;;;;;;;;;;;4.30;75.40;;;;;;5077283;28;19924;-66
2024/03/09 02:18:20;;;;;;;;;;;4.20;75.50;;;;;;5074500;28;20334;-60
2024/03/09 02:20:50;;;;;;;;;;;4.30;75.50;;;;;;5078512;28;19978;-60
2024/03/09 02:23:26;;;;;;;;;;;4.30;75.50;;;;;;5083861;28;20387;-60
2024/03/09 02:26:01;;;;;;;;;;;4.20;75.70;;;;;;5078519;28;19935;-61
2024/03/09 02:28:35;;;;;;;;;;;4.20;75.90;;;;;;5075668;28;20722;-60
2024/03/09 02:31:08;;;;;;;;;;;4.10;75.90;;;;;;5076581;28;20403;-61
2024/03/09 02:33:42;;;;;;;;;;;4.10;75.80;;;;;;5078559;28;20426;-61
2024/03/09 02:36:15;;;;;;;;;;;4.00;75.80;;;;;;5076377;28;19928;-60
2024/03/09 02:38:48;;;;;;;;;;;4.00;76.00;;;;;;5076227;28;19928;-61
2024/03/09 02:41:24;;;;;;;;;;;4.00;76.10;;;;;;5076566;28;19933;-60
2024/03/09 02:43:58;;;;;;;;;;;4.00;76.10;;;;;;5076218;28;19972;-63
2024/03/09 02:46:31;;;;;;;;;;;4.00;76.30;;;;;;5077772;28;19924;-60
2024/03/09 02:49:05;;;;;;;;;;;4.00;76.40;;;;;;5080504;28;19930;-62
2024/03/09 02:51:38;;;;;;;;;;;4.00;76.30;;;;;;5076645;28;19928;-60
2024/03/09 02:54:11;;;;;;;;;;;4.00;76.30;;;;;;5077623;28;20422;-59
2024/03/09 02:56:46;;;;;;;;;;;3.90;76.60;;;;;;5075735;28;19935;-60
2024/03/09 02:59:20;;;;;;;;;;;3.90;76.80;;;;;;5077436;28;20024;-60
2024/03/09 03:01:53;;;;;;;;;;;3.90;76.70;;;;;;5079803;28;19982;-60
2024/03/09 03:04:25;;;;;;;;;;;3.90;76.80;;;;;;5075682;28;19924;-60
2024/03/09 03:06:58;;;;;;;;;;;3.90;76.90;;;;;;5076005;28;19924;-60
2024/03/09 03:09:32;;;;;;;;;;;3.90;76.90;;;;;;5077597;28;19946;-60
2024/03/09 03:12:07;;;;;;;;;;;3.80;76.90;;;;;;5075733;28;19927;-61
2024/03/09 03:14:43;;;;;;;;;;;3.70;77.10;;;;;;5073177;28;19932;-59
2024/03/09 03:17:17;;;;;;;;;;;3.80;77.10;;;;;;5075916;28;20368;-60
2024/03/09 03:19:50;;;;;;;;;;;3.80;77.00;;;;;;5076916;28;19968;-60
2024/03/09 03:22:24;;;;;;;;;;;3.70;77.10;;;;;;5074262;28;19955;-59
2024/03/09 03:24:57;;;;;;;;;;;3.70;77.20;;;;;;5075308;28;20466;-60
2024/03/09 03:27:31;;;;;;;;;;;3.70;77.20;;;;;;5077316;28;19928;-66
2024/03/09 03:30:05;;;;;;;;;;;3.60;77.20;;;;;;5074564;28;20375;-65
2024/03/09 03:32:39;;;;;;;;;;;3.60;77.30;;;;;;5077272;28;20527;-65
2024/03/09 03:35:12;;;;;;;;;;;3.60;77.30;;;;;;5075761;28;20039;-65
2024/03/09 03:37:46;;;;;;;;;;;3.70;77.20;;;;;;5075906;28;19924;-65
2024/03/09 03:40:22;;;;;;;;;;;3.60;77.10;;;;;;5079251;28;20383;-66
2024/03/09 03:42:57;;;;;;;;;;;3.60;77.30;;;;;;5078271;28;19978;-66
2024/03/09 03:45:31;;;;;;;;;;;3.60;77.40;;;;;;5075399;28;20416;-65
2024/03/09 03:48:05;;;;;;;;;;;3.50;77.60;;;;;;5074189;28;19935;-67
2024/03/09 03:50:38;;;;;;;;;;;3.60;77.70;;;;;;5075851;28;19924;-66
2024/03/09 03:53:05;;;;;;;;;;;3.60;77.70;;;;;;5075379;28;19928;-65
2024/03/09 03:55:38;;;;;;;;;;;3.60;77.70;;;;;;5075907;28;19924;-65
2024/03/09 03:58:17;;;;;;;;;;;3.50;78.00;;;;;;5074292;28;19985;-64
2024/03/09 04:00:51;;;;;;;;;;;3.50;78.10;;;;;;5071607;28;19948;-63
2024/03/09 04:03:29;;;;;;;;;;;3.60;77.80;;;;;;5075380;28;19981;-65
2024/03/09 04:06:02;;;;;;;;;;;3.50;78.00;;;;;;5070560;28;19924;-65
2024/03/09 04:08:35;;;;;;;;;;;3.50;78.00;;;;;;5073672;28;19925;-66
2024/03/09 04:11:08;;;;;;;;;;;3.50;78.10;;;;;;5073685;28;20383;-65
2024/03/09 04:13:42;;;;;;;;;;;3.50;78.10;;;;;;5075553;28;19924;-64
2024/03/09 04:16:16;;;;;;;;;;;3.40;78.20;;;;;;5069379;28;19936;-64
2024/03/09 04:18:49;;;;;;;;;;;3.50;78.30;;;;;;5077003;28;19932;-66
2024/03/09 04:21:22;;;;;;;;;;;3.40;78.40;;;;;;5077084;28;19935;-64
2024/03/09 04:23:56;;;;;;;;;;;3.40;78.40;;;;;;5077298;28;19975;-66
2024/03/09 04:26:30;;;;;;;;;;;3.30;78.40;;;;;;5076770;28;19934;-64
2024/03/09 04:29:05;;;;;;;;;;;3.30;78.50;;;;;;5079663;28;19932;-65
2024/03/09 04:31:39;;;;;;;;;;;3.40;78.50;;;;;;5075215;28;20371;-66
2024/03/09 04:34:12;;;;;;;;;;;3.40;78.60;;;;;;5076711;28;20384;-65
2024/03/09 04:36:45;;;;;;;;;;;3.40;78.50;;;;;;5076376;28;20028;-64
2024/03/09 04:39:19;;;;;;;;;;;3.30;78.50;;;;;;5075649;28;19927;-74
2024/03/09 04:41:54;;;;;;;;;;;3.20;78.70;;;;;;5078217;28;20369;-76
2024/03/09 04:44:28;;;;;;;;;;;3.30;78.80;;;;;;5072126;28;20903;-72
2024/03/09 04:47:09;;;;;;;;;;;3.30;78.70;;;;;;4795564;28;8088647;-76
2024/03/09 04:50:24;;;;;;;;;;;3.30;78.60;;;;;;5088067;28;19924;-72
2024/03/09 04:52:58;;;;;;;;;;;3.30;78.80;;;;;;5076367;28;19932;-74
2024/03/09 04:55:31;;;;;;;;;;;3.30;78.80;;;;;;5075225;28;19928;-74
2024/03/09 04:58:13;;;;;;;;;;;3.20;79.00;;;;;;5076339;28;19932;-70
2024/03/09 05:00:48;;;;;;;;;;;3.20;78.90;;;;;;5072808;28;19924;-75
2024/03/09 05:03:22;;;;;;;;;;;3.10;79.10;;;;;;5062203;28;20401;-76
2024/03/09 05:05:55;;;;;;;;;;;3.20;79.00;;;;;;5075912;28;20318;-73
2024/03/09 05:08:28;;;;;;;;;;;3.20;79.00;;;;;;5077589;28;20277;-74
2024/03/09 05:11:07;;;;;;;;;;;3.10;78.90;;;;;;5068780;28;19935;-75
2024/03/09 05:13:41;;;;;;;;;;;3.10;79.00;;;;;;5076734;28;19925;-72
2024/03/09 05:16:17;;;;;;;;;;;3.10;78.90;;;;;;5077109;28;19974;-75
2024/03/09 05:18:51;;;;;;;;;;;3.10;78.90;;;;;;5078583;28;19930;-74
2024/03/09 05:21:25;;;;;;;;;;;3.20;79.10;;;;;;5077344;28;20501;-75
2024/03/09 05:23:58;;;;;;;;;;;3.10;79.30;;;;;;5076697;28;19928;-74
2024/03/09 05:26:32;;;;;;;;;;;3.20;79.10;;;;;;5078360;28;19956;-72
2024/03/09 05:29:05;;;;;;;;;;;3.10;79.40;;;;;;5076321;28;19924;-74
2024/03/09 05:31:40;;;;;;;;;;;3.20;79.40;;;;;;5077601;28;19947;-75
2024/03/09 05:34:15;;;;;;;;;;;3.20;79.50;;;;;;5076153;28;19939;-75
2024/03/09 05:36:48;;;;;;;;;;;3.10;79.40;;;;;;5075987;28;20420;-75
2024/03/09 05:39:15;;;;;;;;;;;3.10;79.50;;;;;;5072796;28;20392;-73
2024/03/09 05:41:49;;;;;;;;;;;3.10;79.60;;;;;;5078201;28;20097;-74
2024/03/09 05:44:23;;;;;;;;;;;3.20;79.60;;;;;;5075860;28;19997;-73
2024/03/09 05:46:57;;;;;;;;;;;3.10;79.50;;;;;;5072124;28;19928;-73
2024/03/09 05:49:31;;;;;;;;;;;3.10;79.60;;;;;;5077499;28;19935;-65
2024/03/09 05:52:05;;;;;;;;;;;3.10;79.80;;;;;;5076585;28;19928;-64
2024/03/09 05:54:38;;;;;;;;;;;3.20;79.80;;;;;;5074862;28;19943;-64
2024/03/09 05:57:11;;;;;;;;;;;3.20;79.70;;;;;;5077827;28;19929;-64
2024/03/09 05:59:44;;;;;;;;;;;3.10;79.80;;;;;;5075462;28;19936;-64
2024/03/09 06:02:39;;;;;;;;;;;3.10;79.80;;;;;;5077555;28;19928;-65
2024/03/09 06:05:14;;;;;;;;;;;3.20;79.80;;;;;;5075185;28;19929;-63
2024/03/09 06:07:48;;;;;;;;;;;3.20;79.90;;;;;;5077269;28;19938;-63
2024/03/09 06:10:16;;;;;;;;;;;3.20;80.10;;;;;;5076905;28;19935;-63
2024/03/09 06:12:56;;;;;;;;;;;3.10;80.20;;;;;;5070333;28;19939;-63
2024/03/09 06:15:30;;;;;;;;;;;3.10;80.30;;;;;;5074036;28;19924;-64
2024/03/09 06:18:05;;;;;;;;;;;3.10;80.30;;;;;;5075794;28;19981;-66
2024/03/09 06:20:41;;;;;;;;;;;3.10;80.30;;;;;;5075563;28;19929;-62
2024/03/09 06:23:14;;;;;;;;;;;3.10;80.50;;;;;;5074708;28;19928;-63
2024/03/09 06:25:47;;;;;;;;;;;3.20;80.40;;;;;;5074708;28;20392;-63
2024/03/09 06:28:20;;;;;;;;;;;3.30;80.10;;;;;;5071249;28;20401;-64
2024/03/09 06:30:53;;;;;;;;;;;3.20;80.30;;;;;;5088046;28;20365;-63
2024/03/09 06:33:28;;;;;;;;;;;3.30;80.20;;;;;;5074624;28;19928;-63
2024/03/09 06:36:05;;;;;;;;;;;3.30;80.30;;;;;;5074960;28;20348;-64
2024/03/09 06:38:44;;;;;;;;;;;3.40;80.10;;;;;;5073169;28;19935;-63
2024/03/09 06:41:18;;;;;;;;;;;3.40;80.30;;;;;;5075765;28;20025;-64
2024/03/09 06:43:57;;;;;;;;;;;3.40;80.40;;;;;;5073542;28;20023;-63
2024/03/09 06:46:31;;;;;;;;;;;3.50;80.30;;;;;;5076833;28;19954;-63
2024/03/09 06:49:08;;;;;;;;;;;3.60;80.30;;;;;;5077829;28;20599;-62
2024/03/09 06:51:42;;;;;;;;;;;3.60;80.50;;;;;;5080181;28;19990;-63
2024/03/09 06:54:16;;;;;;;;;;;3.60;80.40;;;;;;5080254;28;19971;-64
2024/03/09 06:56:51;;;;;;;;;;;3.70;80.50;;;;;;5078970;28;19932;-63
2024/03/09 06:59:25;;;;;;;;;;;3.70;80.20;;;;;;5079446;28;20381;-63
2024/03/09 07:01:59;;;;;;;;;;;3.70;80.50;;;;;;5080511;28;19931;-63
2024/03/09 07:04:33;;;;;;;;;;;3.70;80.70;;;;;;5079114;28;19931;-63
2024/03/09 07:07:09;;;;;;;;;;;3.70;80.70;;;;;;5077661;28;19931;-64
2024/03/09 07:09:49;;;;;;;;;;;3.70;80.70;;;;;;5080398;28;19970;-64
2024/03/09 07:12:22;;;;;;;;;;;3.80;80.70;;;;;;5076646;28;20024;-63
2024/03/09 07:15:06;;;;;;;;;;;3.80;80.60;;;;;;5078140;28;20042;-64
2024/03/09 07:17:40;;;;;;;;;;;3.90;80.40;;;;;;5075738;28;20379;-63
2024/03/09 07:20:13;;;;;;;;;;;4.00;80.40;;;;;;5078781;28;19929;-63
2024/03/09 07:22:49;;;;;;;;;;;4.10;79.70;;;;;;5078433;28;19931;-63
2024/03/09 07:28:36;;;;;;;;;;;4.20;79.90;;;;;;5012209;28;19932;-63
2024/03/09 07:31:11;;;;;;;;;;;4.30;79.70;;;;;;5076512;28;19924;-64
2024/03/09 07:33:44;;;;;;;;;;;4.30;79.60;;;;;;5078200;28;19924;-63
2024/03/09 07:36:17;;;;;;;;;;;4.30;79.20;;;;;;5079288;28;19971;-64
2024/03/09 07:38:52;;;;;;;;;;;4.30;79.80;;;;;;5077748;28;19928;-64
2024/03/09 07:41:26;;;;;;;;;;;4.30;79.30;;;;;;5081124;28;19929;-63
2024/03/09 07:43:59;;;;;;;;;;;4.40;79.40;;;;;;5078942;28;20789;-63
2024/03/09 07:46:32;;;;;;;;;;;4.40;79.40;;;;;;5078374;28;19986;-63
2024/03/09 07:49:05;;;;;;;;;;;4.60;79.20;;;;;;5076667;28;19935;-62
2024/03/09 07:51:38;;;;;;;;;;;4.70;79.00;;;;;;5077022;28;20018;-63
2024/03/09 07:54:12;;;;;;;;;;;4.70;78.70;;;;;;5078350;28;19924;-63
2024/03/09 07:56:46;;;;;;;;;;;4.80;78.90;;;;;;5079550;28;19924;-63
2024/03/09 07:59:19;;;;;;;;;;;4.90;78.90;;;;;;5078089;28;19924;-63
2024/03/09 08:01:52;;;;;;;;;;;5.00;78.70;;;;;;5076149;28;19928;-62
2024/03/09 08:04:27;;;;;;;;;;;5.10;78.40;;;;;;5078344;28;19924;-63
2024/03/09 08:07:00;;;;;;;;;;;5.20;78.40;;;;;;5077469;28;19982;-63
2024/03/09 08:09:34;;;;;;;;;;;5.30;78.20;;;;;;5077699;28;19929;-59
2024/03/09 08:12:08;;;;;;;;;;;5.40;77.90;;;;;;5079778;28;19932;-59
2024/03/09 08:14:42;;;;;;;;;;;5.50;77.50;;;;;;5076272;28;20039;-57
2024/03/09 08:17:15;;;;;;;;;;;5.60;77.10;;;;;;5076168;28;20307;-59
2024/03/09 08:19:48;;;;;;;;;;;5.70;76.70;;;;;;5078518;28;19934;-57
2024/03/09 08:22:22;;;;;;;;;;;5.80;76.20;;;;;;5078112;28;19933;-57
2024/03/09 08:24:56;;;;;;;;;;;6.00;75.90;;;;;;5069302;28;19940;-58
2024/03/09 08:27:30;;;;;;;;;;;6.00;75.50;;;;;;5077051;28;20386;-60
2024/03/09 08:30:04;;;;;;;;;;;6.20;75.40;;;;;;5074959;28;20020;-58
2024/03/09 08:32:37;;;;;;;;;;;6.30;75.40;;;;;;5075364;28;20008;-58
2024/03/09 08:35:11;;;;;;;;;;;6.40;75.00;;;;;;5076433;28;19931;-57
2024/03/09 08:37:45;;;;;;;;;;;6.60;74.60;;;;;;5073164;28;19931;-58
2024/03/09 08:40:21;;;;;;;;;;;6.70;74.40;;;;;;5079892;28;19950;-57
2024/03/09 08:42:54;;;;;;;;;;;6.80;73.90;;;;;;5076224;28;19932;-57
2024/03/09 08:45:27;;;;;;;;;;;6.90;73.80;;;;;;5075606;28;19960;-58
2024/03/09 08:48:03;;;;;;;;;;;7.00;73.50;;;;;;5074330;28;20011;-57
2024/03/09 08:50:30;;;;;;;;;;;7.10;72.80;;;;;;5078575;28;20001;-58
2024/03/09 08:53:03;;;;;;;;;;;7.10;72.80;;;;;;5079230;28;19931;-57
2024/03/09 08:55:37;;;;;;;;;;;7.20;72.10;;;;;;5076998;28;19932;-58
2024/03/09 08:58:11;;;;;;;;;;;7.40;72.20;;;;;;5076647;28;19928;-57
2024/03/09 09:00:44;;;;;;;;;;;7.50;71.50;;;;;;5076885;28;19931;-58
2024/03/09 09:03:17;;;;;;;;;;;7.60;71.20;;;;;;5075460;28;19932;-57
2024/03/09 09:05:51;;;;;;;;;;;7.70;71.00;;;;;;5076991;28;19932;-58
2024/03/09 09:08:25;;;;;;;;;;;7.80;70.90;;;;;;5079414;28;19934;-58
2024/03/09 09:10:59;;;;;;;;;;;7.90;70.30;;;;;;5075911;28;20010;-59
2024/03/09 09:13:33;;;;;;;;;;;8.00;69.90;;;;;;5077285;28;19978;-57
2024/03/09 09:16:06;;;;;;;;;;;8.10;70.10;;;;;;5073458;28;20023;-59
2024/03/09 09:18:41;;;;;;;;;;;8.20;70.30;;;;;;5074353;28;19995;-60
2024/03/09 09:21:14;;;;;;;;;;;8.30;70.10;;;;;;5076299;28;19928;-62
2024/03/09 09:23:48;;;;;;;;;;;8.30;69.80;;;;;;5078251;28;19939;-61
2024/03/09 09:26:22;;;;;;;;;;;8.50;69.60;;;;;;5073263;28;19933;-61
2024/03/09 09:28:56;;;;;;;;;;;8.60;68.70;;;;;;5076790;28;19946;-60
2024/03/09 09:31:29;;;;;;;;;;;8.70;68.60;;;;;;5076024;28;20326;-63
2024/03/09 09:34:02;;;;;;;;;;;8.80;68.00;;;;;;5075782;28;20314;-62
2024/03/09 09:36:35;;;;;;;;;;;8.90;67.60;;;;;;5076327;28;20046;-60
2024/03/09 09:39:13;;;;;;;;;;;9.20;67.30;;;;;;5074510;28;19970;-61
2024/03/09 09:41:49;;;;;;;;;;;9.40;66.80;;;;;;5075559;28;20214;-61
2024/03/09 09:44:26;;;;;;;;;;;9.60;66.00;;;;;;5076233;28;19924;-60
2024/03/09 09:47:00;;;;;;;;;;;9.60;66.00;;;;;;5076435;28;19937;-61
2024/03/09 09:49:33;;;;;;;;;;;9.60;65.20;;;;;;5075260;28;20019;-61
2024/03/09 09:52:03;;;;;;;;;;;9.70;64.60;;;;;;5077104;28;19924;-60
2024/03/09 09:54:38;;;;;;;;;;;9.90;64.30;;;;;;5076703;28;19932;-61
2024/03/09 09:57:07;;;;;;;;;;;10.10;64.00;;;;;;5077106;28;19986;-61
2024/03/09 09:59:40;;;;;;;;;;;10.20;63.40;;;;;;5073339;28;19929;-63
2024/03/09 10:02:14;;;;;;;;;;;10.40;62.60;;;;;;5071584;28;19940;-61
2024/03/09 10:04:47;;;;;;;;;;;10.60;62.40;;;;;;5074628;28;19928;-62
2024/03/09 10:07:20;;;;;;;;;;;10.70;61.90;;;;;;5076848;28;19928;-63
2024/03/09 10:09:47;;;;;;;;;;;10.80;61.60;;;;;;5076041;28;20006;-62
2024/03/09 10:12:22;;;;;;;;;;;11.00;61.70;;;;;;5076023;28;19924;-60
2024/03/09 10:14:57;;;;;;;;;;;11.10;61.30;;;;;;5074583;28;19950;-62
2024/03/09 10:17:34;;;;;;;;;;;11.20;61.20;;;;;;5074230;28;19955;-62
2024/03/09 10:20:07;;;;;;;;;;;11.40;60.60;;;;;;5074545;28;19932;-61
2024/03/09 10:22:41;;;;;;;;;;;11.50;60.80;;;;;;5076640;28;19928;-63
2024/03/09 10:25:24;;;;;;;;;;;11.60;60.40;;;;;;5077341;28;19928;-62
2024/03/09 10:27:59;;;;;;;;;;;11.70;59.90;;;;;;5081760;28;20043;-63
2024/03/09 10:30:33;;;;;;;;;;;11.90;59.70;;;;;;5079908;28;19924;-60
2024/03/09 10:33:09;;;;;;;;;;;11.90;59.60;;;;;;5078990;28;19924;-60
2024/03/09 10:35:44;;;;;;;;;;;12.10;59.60;;;;;;5081220;28;19928;-59
2024/03/09 10:38:18;;;;;;;;;;;12.20;59.20;;;;;;5078051;28;19978;-62
2024/03/09 10:40:52;;;;;;;;;;;12.20;58.10;;;;;;5079130;28;19931;-61
2024/03/09 10:43:28;;;;;;;;;;;12.30;57.60;;;;;;5078549;28;19924;-62
2024/03/09 10:46:04;;;;;;;;;;;12.40;57.60;;;;;;5076306;28;19928;-61
2024/03/09 10:48:38;;;;;;;;;;;12.50;57.60;;;;;;5078575;28;19939;-61
2024/03/09 10:51:19;;;;;;;;;;;12.60;57.00;;;;;;5078919;28;19960;-60
2024/03/09 10:54:06;;;;;;;;;;;12.60;56.60;;;;;;5077850;28;19935;-61
2024/03/09 10:56:39;;;;;;;;;;;12.70;56.50;;;;;;5077776;28;20007;-61
2024/03/09 10:59:14;;;;;;;;;;;12.80;57.20;;;;;;5078689;28;19994;-61
2024/03/09 11:01:49;;;;;;;;;;;12.90;57.20;;;;;;5080208;28;20429;-61
2024/03/09 11:04:24;;;;;;;;;;;12.90;56.50;;;;;;5078172;28;19924;-60
2024/03/09 11:06:57;;;;;;;;;;;12.90;56.00;;;;;;5073168;28;19978;-61
2024/03/09 11:09:30;;;;;;;;;;;13.10;56.70;;;;;;5077738;28;19924;-60
2024/03/09 11:12:04;;;;;;;;;;;13.10;56.80;;;;;;5077353;28;19928;-62
2024/03/09 11:14:50;;;;;;;;;;;13.20;56.60;;;;;;5076002;28;20027;-60
2024/03/09 11:17:27;;;;;;;;;;;13.20;56.20;;;;;;5072487;28;19928;-61
2024/03/09 11:20:00;;;;;;;;;;;13.30;55.80;;;;;;5077564;28;19928;-61
2024/03/09 11:22:39;;;;;;;;;;;13.30;56.50;;;;;;5079185;28;19955;-61
2024/03/09 11:25:14;;;;;;;;;;;13.30;55.90;;;;;;5077038;28;19988;-61
2024/03/09 11:27:47;;;;;;;;;;;13.40;55.10;;;;;;5073894;28;19934;-60
2024/03/09 11:30:30;;;;;;;;;;;13.40;56.00;;;;;;5079840;28;19928;-62
2024/03/09 11:33:03;;;;;;;;;;;13.40;56.40;;;;;;5076427;28;19950;-60
2024/03/09 11:35:36;;;;;;;;;;;13.40;56.50;;;;;;5079155;28;19931;-61
2024/03/09 11:38:10;;;;;;;;;;;13.60;56.80;;;;;;5076364;28;19927;-59
2024/03/09 11:40:43;;;;;;;;;;;13.60;55.00;;;;;;5074739;28;19935;-58
2024/03/09 11:43:16;;;;;;;;;;;13.70;55.40;;;;;;5075921;28;19938;-57
2024/03/09 11:45:50;;;;;;;;;;;13.60;55.80;;;;;;5079088;28;19931;-58
2024/03/09 11:48:23;;;;;;;;;;;13.60;55.20;;;;;;5078740;28;19981;-58
2024/03/09 11:50:58;;;;;;;;;;;13.50;56.30;;;;;;5079271;28;19940;-59
2024/03/09 11:53:31;;;;;;;;;;;13.50;55.80;;;;;;5076017;28;19960;-59
2024/03/09 11:56:04;;;;;;;;;;;13.50;55.50;;;;;;5076094;28;19924;-59
2024/03/09 11:58:37;;;;;;;;;;;13.50;56.00;;;;;;5074276;28;19947;-57
2024/03/09 12:01:13;;;;;;;;;;;13.40;55.30;;;;;;5077097;28;20389;-57
2024/03/09 12:03:50;;;;;;;;;;;13.40;54.90;;;;;;5076073;28;19929;-60
2024/03/09 12:06:24;;;;;;;;;;;13.40;56.10;;;;;;5076478;28;19934;-59
2024/03/09 12:08:58;;;;;;;;;;;13.40;55.20;;;;;;5078563;28;19924;-59
2024/03/09 12:11:32;;;;;;;;;;;13.40;56.20;;;;;;5078871;28;19932;-59
2024/03/09 12:14:06;;;;;;;;;;;13.30;56.70;;;;;;5079943;28;19936;-59
2024/03/09 12:16:41;;;;;;;;;;;13.20;55.20;;;;;;5072474;28;19928;-58
2024/03/09 12:19:14;;;;;;;;;;;13.20;55.40;;;;;;5077674;28;19932;-58
2024/03/09 12:21:42;;;;;;;;;;;13.10;55.90;;;;;;5076782;28;20388;-60
2024/03/09 12:24:16;;;;;;;;;;;13.10;56.40;;;;;;5074896;28;19925;-59
2024/03/09 12:26:49;;;;;;;;;;;13.10;56.10;;;;;;5078303;28;20013;-58
2024/03/09 12:29:23;;;;;;;;;;;13.00;56.40;;;;;;5074081;28;19925;-60
2024/03/09 12:31:58;;;;;;;;;;;13.10;57.50;;;;;;5073493;28;20315;-58
2024/03/09 12:34:31;;;;;;;;;;;13.10;58.60;;;;;;5077133;28;20394;-59
2024/03/09 12:37:04;;;;;;;;;;;13.10;57.70;;;;;;5075795;28;20162;-58
2024/03/09 12:39:47;;;;;;;;;;;13.10;56.40;;;;;;5079673;28;19939;-60
2024/03/09 12:42:20;;;;;;;;;;;13.10;56.30;;;;;;5074669;28;19930;-59
2024/03/09 12:44:57;;;;;;;;;;;13.10;56.90;;;;;;5078860;28;20019;-59
2024/03/09 12:47:31;;;;;;;;;;;13.00;56.60;;;;;;5076433;28;20022;-66
2024/03/09 12:50:08;;;;;;;;;;;12.90;57.00;;;;;;5074949;28;19928;-66
2024/03/09 12:52:44;;;;;;;;;;;12.90;57.70;;;;;;5077182;28;19934;-65
2024/03/09 12:55:25;;;;;;;;;;;12.90;57.20;;;;;;5076332;28;19932;-66
2024/03/09 12:57:59;;;;;;;;;;;12.90;57.50;;;;;;5078905;28;19978;-66
2024/03/09 13:00:33;;;;;;;;;;;12.80;58.50;;;;;;5077014;28;19928;-67
2024/03/09 13:03:08;;;;;;;;;;;12.80;58.70;;;;;;5077121;28;19928;-65
2024/03/09 13:05:41;;;;;;;;;;;12.80;57.90;;;;;;5076140;28;20023;-66
2024/03/09 13:08:14;;;;;;;;;;;12.80;58.50;;;;;;5077448;28;19931;-65
2024/03/09 13:10:49;;;;;;;;;;;12.70;58.30;;;;;;5077142;28;19932;-66
2024/03/09 13:13:22;;;;;;;;;;;12.70;58.40;;;;;;5074544;28;19928;-65
2024/03/09 13:15:56;;;;;;;;;;;12.70;58.60;;;;;;5075385;28;19939;-66
2024/03/09 13:18:32;;;;;;;;;;;12.60;58.60;;;;;;5072651;28;19985;-66
2024/03/09 13:21:06;;;;;;;;;;;12.60;58.40;;;;;;5076515;28;19934;-69
2024/03/09 13:23:39;;;;;;;;;;;12.60;59.50;;;;;;5077046;28;20021;-66
2024/03/09 13:26:13;;;;;;;;;;;12.60;59.30;;;;;;5075653;28;19931;-66
2024/03/09 13:28:49;;;;;;;;;;;12.60;59.50;;;;;;5080559;28;20276;-66
2024/03/09 13:31:23;;;;;;;;;;;12.60;59.20;;;;;;5074554;28;19985;-67
2024/03/09 13:34:24;;;;;;;;;;;12.50;59.10;;;;;;5065259;28;20017;-67
2024/03/09 13:36:57;;;;;;;;;;;12.50;60.00;;;;;;5075070;28;19928;-66
2024/03/09 13:39:35;;;;;;;;;;;12.40;60.00;;;;;;5071424;28;20453;-67
2024/03/09 13:42:10;;;;;;;;;;;12.40;59.80;;;;;;5078185;28;20011;-67
2024/03/09 13:44:44;;;;;;;;;;;12.30;59.70;;;;;;5072689;28;20011;-66
2024/03/09 13:47:30;;;;;;;;;;;12.20;60.30;;;;;;5073999;28;19924;-68
2024/03/09 13:50:20;;;;;;;;;;;12.20;59.90;;;;;;5073787;28;20020;-65
2024/03/09 13:52:54;;;;;;;;;;;12.20;59.80;;;;;;5078800;28;19935;-66
2024/03/09 13:55:28;;;;;;;;;;;12.20;60.30;;;;;;5075104;28;19936;-67
2024/03/09 13:58:01;;;;;;;;;;;12.20;60.50;;;;;;5076280;28;19932;-61
2024/03/09 14:00:41;;;;;;;;;;;12.20;60.30;;;;;;5086942;28;19925;-60
2024/03/09 14:03:14;;;;;;;;;;;12.20;60.20;;;;;;5079653;28;19924;-61
2024/03/09 14:05:48;;;;;;;;;;;12.10;60.70;;;;;;5078919;28;19931;-60
2024/03/09 14:08:22;;;;;;;;;;;12.10;60.40;;;;;;5080267;28;20276;-61
2024/03/09 14:10:57;;;;;;;;;;;12.10;60.50;;;;;;5082547;28;19956;-61
2024/03/09 14:13:24;;;;;;;;;;;12.10;60.00;;;;;;5079391;28;19928;-61
2024/03/09 14:15:57;;;;;;;;;;;12.00;60.80;;;;;;5079363;28;19925;-62
2024/03/09 14:18:32;;;;;;;;;;;12.10;60.60;;;;;;5078919;28;19932;-63
2024/03/09 14:21:13;;;;;;;;;;;12.00;60.50;;;;;;5077082;28;20012;-60
2024/03/09 14:23:48;;;;;;;;;;;12.10;61.30;;;;;;5077708;28;19960;-61
2024/03/09 14:26:24;;;;;;;;;;;12.00;60.90;;;;;;5081009;28;20298;-61
2024/03/09 14:28:58;;;;;;;;;;;12.00;61.70;;;;;;5080571;28;19928;-61
2024/03/09 14:31:34;;;;;;;;;;;12.00;60.40;;;;;;5074518;28;19928;-61
2024/03/09 14:34:07;;;;;;;;;;;12.00;60.40;;;;;;5077237;28;19928;-61
2024/03/09 14:36:41;;;;;;;;;;;12.00;61.30;;;;;;5078869;28;20468;-61
2024/03/09 14:39:17;;;;;;;;;;;12.00;60.40;;;;;;5077172;28;19977;-61
2024/03/09 14:44:52;;;;;;;;;;;12.00;60.50;;;;;;5076829;28;19928;-60
2024/03/09 14:47:27;;;;;;;;;;;12.00;61.30;;;;;;5079000;28;19932;-62
2024/03/09 14:50:00;;;;;;;;;;;12.00;62.20;;;;;;5079461;28;19925;-60
2024/03/09 14:52:35;;;;;;;;;;;12.00;61.40;;;;;;5079345;28;19924;-61
2024/03/09 14:55:10;;;;;;;;;;;11.90;60.80;;;;;;5080565;28;19924;-61
2024/03/09 14:57:43;;;;;;;;;;;11.90;60.90;;;;;;5082833;28;20023;-60
2024/03/09 15:00:48;;;;;;;;;;;11.90;60.20;;;;;;5073528;28;19928;-61
2024/03/09 15:03:12;;;;;;;;;;;11.80;60.60;;;;;;5078818;28;20015;-61
2024/03/09 15:05:50;;;;;;;;;;;11.80;60.40;;;;;;5074560;28;20454;-62
2024/03/09 15:08:24;;;;;;;;;;;11.80;61.20;;;;;;5087903;28;20002;-61
2024/03/09 15:10:58;;;;;;;;;;;11.70;61.10;;;;;;5077945;28;19967;-61
2024/03/09 15:13:37;;;;;;;;;;;11.70;61.20;;;;;;5079528;28;19928;-61